Time;durP1;ratioP1;P1;durP2;ratioP2;P2;SDS_P1;SDS_P2;PMS_P1;PMS_P2;Temp;Humidity;BMP_temperature;BMP_pressure;BME280_temperature;BME280_humidity;BME280_pressure;Samples;Min_cycle;Max_cycle;Signal;HPM_P1;HPM_P2
2022/04/25 00:00:14;;;;;;;14.05;8.00;;;;;;;;;;5038527;28;20527;-64
2022/04/25 00:02:40;;;;;;;11.43;7.53;;;;;;;;;;5034052;28;20025;-63
2022/04/25 00:05:05;;;;;;;15.95;8.43;;;;;;;;;;5032544;28;20036;-63
2022/04/25 00:07:31;;;;;;;14.27;9.18;;;;;;;;;;5014907;28;20022;-63
2022/04/25 00:09:57;;;;;;;15.60;9.45;;;;;;;;;;5028164;28;20036;-64
2022/04/25 00:12:22;;;;;;;16.27;9.70;;;;;;;;;;5013282;28;20037;-63
2022/04/25 00:14:48;;;;;;;16.38;10.45;;;;;;;;;;5020535;28;20383;-63
2022/04/25 00:17:13;;;;;;;17.05;11.25;;;;;;;;;;5023800;28;20067;-63
2022/04/25 00:19:38;;;;;;;17.27;11.52;;;;;;;;;;5017872;28;20075;-61
2022/04/25 00:22:04;;;;;;;20.17;12.55;;;;;;;;;;5026352;28;20464;-64
2022/04/25 00:24:29;;;;;;;19.77;11.95;;;;;;;;;;5033204;28;20070;-63
2022/04/25 00:26:55;;;;;;;16.88;10.52;;;;;;;;;;5030297;28;20036;-63
2022/04/25 00:29:21;;;;;;;15.65;10.70;;;;;;;;;;5032366;28;20120;-63
2022/04/25 00:31:47;;;;;;;14.85;10.50;;;;;;;;;;5030552;28;20575;-63
2022/04/25 00:34:12;;;;;;;16.30;10.57;;;;;;;;;;5016870;28;20080;-63
2022/04/25 00:36:37;;;;;;;16.45;10.98;;;;;;;;;;5037598;28;20025;-62
2022/04/25 00:39:03;;;;;;;17.17;9.85;;;;;;;;;;5025943;28;20490;-62
2022/04/25 00:41:30;;;;;;;17.27;9.75;;;;;;;;;;5033782;28;20372;-62
2022/04/25 00:43:56;;;;;;;15.00;10.23;;;;;;;;;;5025220;28;20044;-63
2022/04/25 00:46:23;;;;;;;16.85;10.93;;;;;;;;;;5016188;28;20034;-63
2022/04/25 00:48:49;;;;;;;16.90;9.77;;;;;;;;;;5014940;28;20044;-62
2022/04/25 00:51:16;;;;;;;14.98;8.95;;;;;;;;;;5012544;28;20034;-62
2022/04/25 00:53:46;;;;;;;14.85;9.77;;;;;;;;;;5014915;28;20036;-62
2022/04/25 00:56:15;;;;;;;14.23;9.55;;;;;;;;;;5028084;28;20502;-62
2022/04/25 00:58:42;;;;;;;15.55;9.93;;;;;;;;;;5012464;28;20022;-62
2022/04/25 01:01:08;;;;;;;14.40;9.52;;;;;;;;;;5031376;28;20048;-62
2022/04/25 01:03:33;;;;;;;15.52;9.85;;;;;;;;;;5021403;28;20045;-62
2022/04/25 01:05:59;;;;;;;14.23;9.10;;;;;;;;;;5012665;28;20383;-61
2022/04/25 01:08:26;;;;;;;13.35;9.25;;;;;;;;;;5024635;28;20112;-60
2022/04/25 01:10:52;;;;;;;13.40;8.98;;;;;;;;;;5011537;28;20034;-63
2022/04/25 01:13:18;;;;;;;14.75;9.50;;;;;;;;;;5035721;28;20033;-62
2022/04/25 01:15:43;;;;;;;13.27;8.57;;;;;;;;;;5011796;28;20084;-64
2022/04/25 01:18:09;;;;;;;14.75;9.10;;;;;;;;;;5017643;28;20029;-62
2022/04/25 01:20:34;;;;;;;14.75;9.82;;;;;;;;;;5023009;28;20039;-63
2022/04/25 01:28:35;;;;;;;15.63;10.35;;;;;;;;;;5036953;28;20214;-62
2022/04/25 01:31:00;;;;;;;16.98;10.80;;;;;;;;;;5026700;28;20113;-62
2022/04/25 01:33:26;;;;;;;16.35;10.75;;;;;;;;;;5038733;28;20028;-62
2022/04/25 01:35:51;;;;;;;18.95;11.00;;;;;;;;;;5031683;28;20032;-62
2022/04/25 01:38:17;;;;;;;21.33;11.98;;;;;;;;;;5022224;28;20109;-62
2022/04/25 01:40:42;;;;;;;21.48;12.20;;;;;;;;;;5013628;28;20157;-62
2022/04/25 01:43:08;;;;;;;23.67;13.35;;;;;;;;;;5031344;28;20033;-63
2022/04/25 01:45:42;;;;;;;25.60;13.25;;;;;;;;;;5048189;28;20037;-63
2022/04/25 01:48:08;;;;;;;24.30;13.82;;;;;;;;;;5028995;28;20026;-63
2022/04/25 01:50:33;;;;;;;24.48;13.50;;;;;;;;;;5030287;28;20120;-63
2022/04/25 01:52:59;;;;;;;24.05;13.45;;;;;;;;;;5018558;28;20034;-63
2022/04/25 01:55:24;;;;;;;24.10;12.93;;;;;;;;;;5014356;28;20436;-63
2022/04/25 01:57:50;;;;;;;18.27;11.45;;;;;;;;;;5016105;28;20025;-63
2022/04/25 02:00:15;;;;;;;16.55;9.93;;;;;;;;;;5042684;28;20406;-63
2022/04/25 02:02:41;;;;;;;13.23;8.95;;;;;;;;;;5032973;28;20087;-63
2022/04/25 02:05:07;;;;;;;12.25;7.05;;;;;;;;;;5011361;28;20104;-63
2022/04/25 02:07:33;;;;;;;10.65;6.70;;;;;;;;;;5011192;28;20049;-63
2022/04/25 02:09:58;;;;;;;10.30;6.90;;;;;;;;;;5025732;28;20029;-63
2022/04/25 02:12:24;;;;;;;9.73;6.78;;;;;;;;;;5048610;28;20032;-63
2022/04/25 02:14:50;;;;;;;13.25;7.32;;;;;;;;;;5039076;28;20036;-64
2022/04/25 02:17:16;;;;;;;12.63;7.82;;;;;;;;;;5041032;28;20057;-64
2022/04/25 02:19:44;;;;;;;14.55;8.40;;;;;;;;;;5013715;28;20034;-63
2022/04/25 02:22:11;;;;;;;15.85;9.30;;;;;;;;;;5017143;28;20884;-63
2022/04/25 02:24:37;;;;;;;16.48;9.60;;;;;;;;;;5019324;28;20116;-63
2022/04/25 02:27:04;;;;;;;17.13;9.60;;;;;;;;;;5015369;28;20583;-63
2022/04/25 02:29:34;;;;;;;18.17;10.20;;;;;;;;;;5012506;28;20037;-64
2022/04/25 02:32:03;;;;;;;16.23;9.50;;;;;;;;;;5011848;28;20022;-64
2022/04/25 02:34:31;;;;;;;15.40;8.70;;;;;;;;;;5015267;28;20034;-64
2022/04/25 02:36:58;;;;;;;15.68;9.10;;;;;;;;;;5013481;28;20033;-65
2022/04/25 02:39:24;;;;;;;14.35;8.65;;;;;;;;;;5014625;28;20390;-64
2022/04/25 02:41:49;;;;;;;14.45;9.73;;;;;;;;;;5030158;28;20030;-64
2022/04/25 02:44:15;;;;;;;15.88;10.27;;;;;;;;;;5013865;28;20045;-62
2022/04/25 02:46:41;;;;;;;18.50;11.18;;;;;;;;;;5030872;28;20053;-63
2022/04/25 02:49:07;;;;;;;23.13;13.55;;;;;;;;;;5018565;28;20036;-64
2022/04/25 02:51:32;;;;;;;23.75;13.18;;;;;;;;;;5014073;28;20037;-63
2022/04/25 02:53:58;;;;;;;22.50;13.60;;;;;;;;;;5010781;28;20501;-64
2022/04/25 02:56:23;;;;;;;25.42;14.30;;;;;;;;;;5037601;28;20039;-63
2022/04/25 02:58:48;;;;;;;26.10;14.63;;;;;;;;;;5018669;28;20026;-63
2022/04/25 03:01:14;;;;;;;25.55;14.63;;;;;;;;;;5026891;28;20068;-64
2022/04/25 03:03:39;;;;;;;24.85;14.98;;;;;;;;;;5016649;28;20083;-63
2022/04/25 03:06:07;;;;;;;26.33;14.65;;;;;;;;;;5018284;28;20151;-64
2022/04/25 03:08:34;;;;;;;29.35;16.02;;;;;;;;;;5017523;28;20497;-63
2022/04/25 03:11:03;;;;;;;28.63;16.52;;;;;;;;;;5029098;28;20070;-63
2022/04/25 03:13:28;;;;;;;30.40;17.13;;;;;;;;;;5027905;28;20066;-63
2022/04/25 03:15:54;;;;;;;34.88;17.35;;;;;;;;;;5034796;28;20081;-63
2022/04/25 03:18:22;;;;;;;32.25;18.40;;;;;;;;;;5035778;28;20086;-63
2022/04/25 03:20:49;;;;;;;33.25;17.70;;;;;;;;;;5024965;28;20056;-64
2022/04/25 03:23:20;;;;;;;35.60;19.08;;;;;;;;;;5015895;28;20387;-63
2022/04/25 03:25:45;;;;;;;33.00;18.63;;;;;;;;;;5015959;28;20030;-63
2022/04/25 03:28:11;;;;;;;34.78;19.25;;;;;;;;;;5016209;28;20632;-64
2022/04/25 03:30:38;;;;;;;31.63;18.75;;;;;;;;;;5015358;28;20029;-64
2022/04/25 03:33:03;;;;;;;38.58;18.85;;;;;;;;;;5015422;28;20514;-64
2022/04/25 03:35:30;;;;;;;35.47;18.25;;;;;;;;;;5048274;28;20033;-64
2022/04/25 03:37:57;;;;;;;31.40;17.00;;;;;;;;;;5016600;28;20072;-64
2022/04/25 03:40:23;;;;;;;30.90;15.73;;;;;;;;;;5055270;28;20094;-64
2022/04/25 03:42:53;;;;;;;26.38;15.07;;;;;;;;;;5046637;28;20033;-64
2022/04/25 03:45:18;;;;;;;29.15;15.65;;;;;;;;;;5026300;28;20025;-64
2022/04/25 03:47:45;;;;;;;31.05;16.08;;;;;;;;;;5013953;28;20040;-65
2022/04/25 03:50:12;;;;;;;29.73;15.68;;;;;;;;;;5040715;28;20036;-65
2022/04/25 03:52:40;;;;;;;28.98;15.52;;;;;;;;;;5020489;28;20480;-65
2022/04/25 03:57:53;;;;;;;28.42;14.57;;;;;;;;;;5030179;28;20159;-65
2022/04/25 04:00:20;;;;;;;28.33;15.45;;;;;;;;;;5013498;28;20073;-64
2022/04/25 04:02:46;;;;;;;27.63;15.10;;;;;;;;;;5032104;28;20033;-64
2022/04/25 04:05:12;;;;;;;30.77;15.40;;;;;;;;;;5046588;28;20037;-65
2022/04/25 04:07:38;;;;;;;23.48;14.27;;;;;;;;;;5020179;28;20044;-63
2022/04/25 04:10:04;;;;;;;25.20;14.82;;;;;;;;;;5022823;28;20037;-64
2022/04/25 04:12:36;;;;;;;29.65;15.52;;;;;;;;;;5015067;28;20088;-64
2022/04/25 04:15:04;;;;;;;29.15;15.60;;;;;;;;;;5014291;28;20092;-65
2022/04/25 04:17:33;;;;;;;30.75;16.42;;;;;;;;;;5013950;28;20041;-64
2022/04/25 04:19:58;;;;;;;30.40;16.35;;;;;;;;;;5012896;28;20070;-63
2022/04/25 04:22:25;;;;;;;28.77;15.45;;;;;;;;;;5029753;28;20077;-64
2022/04/25 04:24:51;;;;;;;28.98;15.98;;;;;;;;;;5014086;28;20029;-64
2022/04/25 04:27:17;;;;;;;25.27;15.30;;;;;;;;;;5012407;28;20091;-64
2022/04/25 04:29:43;;;;;;;24.83;15.02;;;;;;;;;;5014038;28;20034;-64
2022/04/25 04:32:10;;;;;;;25.30;14.75;;;;;;;;;;5013547;28;20034;-64
2022/04/25 04:35:02;;;;;;;28.55;15.00;;;;;;;;;;5021848;28;20060;-64
2022/04/25 04:37:33;;;;;;;25.27;14.43;;;;;;;;;;5031857;28;20049;-64
2022/04/25 04:42:43;;;;;;;21.05;12.80;;;;;;;;;;5014013;28;19935;-64
2022/04/25 04:45:09;;;;;;;22.65;13.02;;;;;;;;;;5013342;28;20042;-64
2022/04/25 04:47:35;;;;;;;24.67;14.10;;;;;;;;;;5024368;28;20120;-64
2022/04/25 04:50:01;;;;;;;22.92;13.25;;;;;;;;;;5022001;28;20491;-64
2022/04/25 04:52:26;;;;;;;21.75;13.35;;;;;;;;;;5040933;28;20062;-64
2022/04/25 04:54:51;;;;;;;20.65;13.10;;;;;;;;;;5041127;28;20029;-64
2022/04/25 04:57:17;;;;;;;18.75;12.35;;;;;;;;;;5027999;28;20108;-64
2022/04/25 04:59:42;;;;;;;19.17;11.80;;;;;;;;;;5035025;28;20040;-64
2022/04/25 05:02:09;;;;;;;16.73;10.93;;;;;;;;;;5049179;28;20036;-64
2022/04/25 05:04:34;;;;;;;15.88;10.52;;;;;;;;;;5041288;28;20022;-63
2022/04/25 05:06:59;;;;;;;14.50;10.10;;;;;;;;;;5040283;28;20029;-63
2022/04/25 05:09:25;;;;;;;14.45;9.23;;;;;;;;;;5045179;28;20560;-64
2022/04/25 05:11:50;;;;;;;13.82;8.85;;;;;;;;;;5050525;28;20473;-66
2022/04/25 05:14:16;;;;;;;12.35;8.45;;;;;;;;;;5044266;28;20044;-64
2022/04/25 05:16:41;;;;;;;14.55;9.55;;;;;;;;;;5053443;28;20032;-64
2022/04/25 05:19:07;;;;;;;13.48;9.13;;;;;;;;;;5030127;28;20467;-64
2022/04/25 05:21:33;;;;;;;17.20;9.38;;;;;;;;;;5013910;28;20368;-64
2022/04/25 05:23:58;;;;;;;13.75;8.75;;;;;;;;;;5028193;28;20048;-64
2022/04/25 05:26:24;;;;;;;15.48;9.40;;;;;;;;;;5052902;28;20083;-63
2022/04/25 05:28:50;;;;;;;13.77;9.00;;;;;;;;;;5051247;28;20096;-63
2022/04/25 05:31:15;;;;;;;13.75;9.02;;;;;;;;;;5052473;28;20029;-64
2022/04/25 05:33:40;;;;;;;14.23;8.90;;;;;;;;;;5042753;28;20039;-64
2022/04/25 05:36:06;;;;;;;13.98;8.95;;;;;;;;;;5049503;28;20529;-64
2022/04/25 05:38:31;;;;;;;14.50;9.30;;;;;;;;;;5040133;28;20043;-64
2022/04/25 05:40:57;;;;;;;13.52;8.30;;;;;;;;;;5048252;28;20071;-64
2022/04/25 05:43:23;;;;;;;14.18;8.95;;;;;;;;;;5044981;28;20033;-64
2022/04/25 05:45:48;;;;;;;14.55;8.40;;;;;;;;;;5048935;28;20033;-65
2022/04/25 05:54:03;;;;;;;14.23;8.90;;;;;;;;;;5042783;28;20540;-66
2022/04/25 05:56:28;;;;;;;16.58;9.50;;;;;;;;;;5032555;28;20033;-65
2022/04/25 05:58:53;;;;;;;14.88;9.52;;;;;;;;;;5037848;28;20025;-66
2022/04/25 06:01:22;;;;;;;15.25;10.00;;;;;;;;;;5051609;28;20056;-66
2022/04/25 06:03:47;;;;;;;14.45;9.35;;;;;;;;;;5049020;28;20459;-66
2022/04/25 06:06:12;;;;;;;15.98;9.48;;;;;;;;;;5045542;28;20029;-63
2022/04/25 06:08:38;;;;;;;15.63;9.45;;;;;;;;;;5049030;28;20044;-63
2022/04/25 06:11:03;;;;;;;13.27;8.90;;;;;;;;;;5047468;28;20029;-65
2022/04/25 06:13:29;;;;;;;14.57;9.45;;;;;;;;;;5051198;28;20040;-63
2022/04/25 06:15:54;;;;;;;14.57;9.23;;;;;;;;;;5051057;28;20184;-63
2022/04/25 06:18:20;;;;;;;14.43;9.18;;;;;;;;;;5049995;28;20213;-62
2022/04/25 06:20:45;;;;;;;16.15;9.38;;;;;;;;;;5030302;28;20490;-62
2022/04/25 06:23:11;;;;;;;15.32;9.32;;;;;;;;;;5035193;28;20078;-62
2022/04/25 06:25:37;;;;;;;15.43;9.18;;;;;;;;;;5049346;28;20071;-62
2022/04/25 06:28:03;;;;;;;13.52;8.80;;;;;;;;;;5035103;28;20044;-65
2022/04/25 06:30:32;;;;;;;14.20;9.48;;;;;;;;;;5007016;28;20029;-61
2022/04/25 06:32:58;;;;;;;15.65;9.52;;;;;;;;;;5031060;28;20037;-62
2022/04/25 06:35:24;;;;;;;13.90;8.95;;;;;;;;;;5041939;28;20043;-61
2022/04/25 06:37:51;;;;;;;14.57;9.23;;;;;;;;;;5020132;28;20034;-61
2022/04/25 06:40:17;;;;;;;15.15;9.43;;;;;;;;;;5029894;28;20479;-61
2022/04/25 06:42:43;;;;;;;14.32;9.43;;;;;;;;;;5031344;28;20438;-64
2022/04/25 06:45:09;;;;;;;14.38;9.65;;;;;;;;;;5044926;28;20032;-61
2022/04/25 06:47:34;;;;;;;17.60;9.80;;;;;;;;;;5051799;28;20397;-61
2022/04/25 06:50:00;;;;;;;14.18;9.57;;;;;;;;;;5044905;28;20040;-63
2022/04/25 06:52:26;;;;;;;14.70;10.23;;;;;;;;;;5028070;28;20125;-62
2022/04/25 06:55:01;;;;;;;16.10;10.15;;;;;;;;;;5020670;28;20033;-62
2022/04/25 06:57:26;;;;;;;13.75;9.65;;;;;;;;;;5029395;28;20064;-62
2022/04/25 06:59:52;;;;;;;16.17;10.43;;;;;;;;;;5030224;28;20407;-61
2022/04/25 07:02:18;;;;;;;18.25;10.73;;;;;;;;;;5031031;28;20037;-61
2022/04/25 07:04:45;;;;;;;16.80;10.55;;;;;;;;;;5033355;28;20079;-61
2022/04/25 07:07:10;;;;;;;15.98;10.68;;;;;;;;;;5027436;28;20040;-62
2022/04/25 07:09:36;;;;;;;17.83;11.10;;;;;;;;;;5035101;28;20033;-62
2022/04/25 07:12:01;;;;;;;17.13;11.30;;;;;;;;;;5051271;28;20037;-62
2022/04/25 07:14:33;;;;;;;17.83;11.50;;;;;;;;;;5035600;28;20033;-63
2022/04/25 07:17:00;;;;;;;16.90;11.35;;;;;;;;;;5044898;28;20033;-63
2022/04/25 07:19:25;;;;;;;18.55;11.82;;;;;;;;;;5012773;28;20037;-61
2022/04/25 07:30:03;;;;;;;19.40;12.95;;;;;;;;;;5049970;28;20059;-62
2022/04/25 07:32:29;;;;;;;20.42;13.15;;;;;;;;;;5044566;28;20045;-62
2022/04/25 07:34:55;;;;;;;20.50;13.38;;;;;;;;;;5047965;28;20033;-62
2022/04/25 07:37:23;;;;;;;21.83;14.55;;;;;;;;;;5016020;28;20389;-61
2022/04/25 07:39:49;;;;;;;22.70;14.70;;;;;;;;;;5019446;28;20029;-62
2022/04/25 07:42:18;;;;;;;22.27;14.18;;;;;;;;;;5045203;28;20072;-61
2022/04/25 07:44:44;;;;;;;24.48;15.40;;;;;;;;;;5037203;28;20033;-61
2022/04/25 07:47:10;;;;;;;23.65;14.63;;;;;;;;;;5047013;28;20479;-61
2022/04/25 07:49:35;;;;;;;24.27;15.00;;;;;;;;;;5022105;28;20040;-62
2022/04/25 07:52:01;;;;;;;22.92;14.98;;;;;;;;;;5043920;28;20033;-61
2022/04/25 07:54:27;;;;;;;25.35;15.68;;;;;;;;;;5015988;28;20117;-62
2022/04/25 07:56:52;;;;;;;26.95;16.23;;;;;;;;;;5037328;28;20383;-61
2022/04/25 07:59:19;;;;;;;23.38;15.48;;;;;;;;;;5029610;28;20460;-61
2022/04/25 08:01:44;;;;;;;24.02;15.40;;;;;;;;;;5052657;28;20029;-61
2022/04/25 08:04:11;;;;;;;24.48;15.50;;;;;;;;;;5030655;28;20457;-62
2022/04/25 08:06:38;;;;;;;24.30;15.38;;;;;;;;;;5033503;28;20033;-61
2022/04/25 08:09:04;;;;;;;27.35;15.10;;;;;;;;;;5035182;28;20022;-62
2022/04/25 08:11:29;;;;;;;23.17;15.25;;;;;;;;;;5045912;28;20045;-60
2022/04/25 08:19:23;;;;;;;25.25;15.35;;;;;;;;;;5031794;28;20044;-61
2022/04/25 08:21:48;;;;;;;23.65;15.88;;;;;;;;;;5022947;28;20025;-61
2022/04/25 08:24:14;;;;;;;26.00;15.80;;;;;;;;;;5046467;28;20513;-61
2022/04/25 08:26:40;;;;;;;25.13;15.57;;;;;;;;;;5027932;28;20165;-61
2022/04/25 08:29:06;;;;;;;24.60;15.68;;;;;;;;;;5031308;28;20100;-61
2022/04/25 08:31:33;;;;;;;25.77;16.30;;;;;;;;;;5029375;28;20391;-61
2022/04/25 08:33:59;;;;;;;24.73;15.68;;;;;;;;;;5019964;28;20076;-61
2022/04/25 08:36:25;;;;;;;28.38;16.45;;;;;;;;;;5016463;28;20029;-62
2022/04/25 08:38:51;;;;;;;27.63;16.58;;;;;;;;;;5036474;28;20033;-62
2022/04/25 08:41:21;;;;;;;26.65;16.42;;;;;;;;;;5050669;28;20426;-62
2022/04/25 08:43:52;;;;;;;24.80;15.98;;;;;;;;;;5034977;28;20072;-62
2022/04/25 08:46:21;;;;;;;25.77;16.30;;;;;;;;;;5028704;28;20964;-61
2022/04/25 08:48:47;;;;;;;24.60;15.98;;;;;;;;;;5017157;28;20505;-62
2022/04/25 08:51:15;;;;;;;24.23;16.02;;;;;;;;;;5016707;28;20025;-61
2022/04/25 08:53:42;;;;;;;24.50;15.50;;;;;;;;;;5054038;28;20526;-60
2022/04/25 08:56:08;;;;;;;24.40;15.80;;;;;;;;;;5050589;28;20032;-61
2022/04/25 08:58:36;;;;;;;23.63;15.40;;;;;;;;;;5030508;28;20030;-62
2022/04/25 09:01:02;;;;;;;27.10;15.43;;;;;;;;;;5024994;28;20061;-61
2022/04/25 09:03:27;;;;;;;24.05;15.20;;;;;;;;;;5031669;28;20060;-61
2022/04/25 09:05:53;;;;;;;27.23;16.52;;;;;;;;;;5033728;28;20026;-60
2022/04/25 09:08:19;;;;;;;26.17;16.67;;;;;;;;;;5050946;28;20040;-60
2022/04/25 09:10:45;;;;;;;25.25;16.23;;;;;;;;;;5051179;28;20033;-61
2022/04/25 09:13:11;;;;;;;22.83;14.95;;;;;;;;;;5037389;28;20391;-63
2022/04/25 09:15:37;;;;;;;22.45;14.90;;;;;;;;;;5035191;28;20489;-61
2022/04/25 09:18:03;;;;;;;22.70;14.82;;;;;;;;;;5032717;28;20037;-61
2022/04/25 09:20:29;;;;;;;19.90;13.48;;;;;;;;;;5028524;28;20041;-61
2022/04/25 09:22:55;;;;;;;22.33;14.70;;;;;;;;;;5051809;28;20491;-62
2022/04/25 09:25:21;;;;;;;22.38;13.35;;;;;;;;;;5034049;28;20472;-62
2022/04/25 09:27:47;;;;;;;19.02;12.88;;;;;;;;;;5053658;28;20036;-62
2022/04/25 09:30:21;;;;;;;21.77;13.40;;;;;;;;;;5043736;28;20029;-63
2022/04/25 09:32:49;;;;;;;19.70;12.70;;;;;;;;;;5033325;28;20048;-65
2022/04/25 09:35:41;;;;;;;20.33;12.95;;;;;;;;;;5025966;28;20034;-63
2022/04/25 09:38:10;;;;;;;20.67;13.45;;;;;;;;;;5013542;28;20029;-62
2022/04/25 09:40:38;;;;;;;19.77;13.38;;;;;;;;;;5031099;28;20052;-62
2022/04/25 09:43:11;;;;;;;18.85;12.93;;;;;;;;;;5036647;28;20079;-62
2022/04/25 09:45:41;;;;;;;23.70;13.18;;;;;;;;;;5044210;28;20166;-62
2022/04/25 09:48:15;;;;;;;19.98;12.60;;;;;;;;;;5037718;28;20467;-64
2022/04/25 09:50:42;;;;;;;19.52;12.98;;;;;;;;;;5018722;28;20034;-62
2022/04/25 09:53:10;;;;;;;19.23;12.63;;;;;;;;;;5029963;28;20025;-62
2022/04/25 09:55:38;;;;;;;16.02;12.07;;;;;;;;;;5010887;28;20026;-61
2022/04/25 09:58:32;;;;;;;19.77;13.00;;;;;;;;;;5049415;28;20028;-62
2022/04/25 10:01:11;;;;;;;17.70;12.40;;;;;;;;;;5038187;28;20484;-61
2022/04/25 10:03:37;;;;;;;19.65;12.55;;;;;;;;;;5038991;28;20043;-61
2022/04/25 10:06:03;;;;;;;18.45;12.57;;;;;;;;;;5048310;28;20028;-62
2022/04/25 10:08:32;;;;;;;19.27;13.05;;;;;;;;;;5042179;28;20025;-62
2022/04/25 10:11:02;;;;;;;18.50;13.18;;;;;;;;;;5030203;28;20026;-61
2022/04/25 10:13:30;;;;;;;21.63;14.65;;;;;;;;;;5030067;28;20036;-62
2022/04/25 10:15:56;;;;;;;20.50;13.25;;;;;;;;;;5029554;28;20390;-62
2022/04/25 10:18:23;;;;;;;20.30;14.00;;;;;;;;;;5037119;28;20030;-62
2022/04/25 10:20:49;;;;;;;22.48;14.43;;;;;;;;;;5029703;28;20080;-62
2022/04/25 10:23:16;;;;;;;19.27;13.65;;;;;;;;;;5050755;28;20041;-63
2022/04/25 10:25:48;;;;;;;22.40;14.77;;;;;;;;;;5017966;28;20112;-62
2022/04/25 10:28:19;;;;;;;20.67;13.73;;;;;;;;;;5012621;28;20052;-62
2022/04/25 10:30:48;;;;;;;20.40;14.35;;;;;;;;;;5048220;28;20116;-62
2022/04/25 10:33:22;;;;;;;17.90;13.45;;;;;;;;;;5041371;28;20041;-63
2022/04/25 10:35:50;;;;;;;19.05;13.15;;;;;;;;;;5027796;28;20036;-62
2022/04/25 10:44:17;;;;;;;20.48;14.00;;;;;;;;;;5030858;28;20056;-62
2022/04/25 10:47:04;;;;;;;20.23;14.57;;;;;;;;;;5051357;28;20032;-62
2022/04/25 10:49:32;;;;;;;21.50;14.10;;;;;;;;;;5026252;28;20051;-63
2022/04/25 10:51:58;;;;;;;19.67;13.88;;;;;;;;;;5024480;28;20041;-62
2022/04/25 10:54:27;;;;;;;19.65;14.02;;;;;;;;;;5023297;28;20032;-63
2022/04/25 10:57:08;;;;;;;17.98;13.30;;;;;;;;;;5017484;28;20121;-63
2022/04/25 10:59:34;;;;;;;16.30;12.80;;;;;;;;;;5011465;28;20069;-63
2022/04/25 11:01:59;;;;;;;19.05;12.75;;;;;;;;;;5012052;28;20481;-63
2022/04/25 11:04:26;;;;;;;19.50;13.68;;;;;;;;;;5012111;28;20042;-63
2022/04/25 11:07:21;;;;;;;17.08;13.38;;;;;;;;;;5011431;28;20025;-63
2022/04/25 11:09:47;;;;;;;19.27;13.13;;;;;;;;;;5010647;28;20025;-62
2022/04/25 11:12:12;;;;;;;16.60;12.50;;;;;;;;;;5011753;28;20032;-63
2022/04/25 11:14:54;;;;;;;18.67;13.45;;;;;;;;;;5009817;28;20598;-63
2022/04/25 11:17:20;;;;;;;18.90;13.13;;;;;;;;;;5009383;28;20096;-64
2022/04/25 11:19:51;;;;;;;17.73;13.15;;;;;;;;;;5021175;28;20037;-63
2022/04/25 11:22:35;;;;;;;16.27;11.57;;;;;;;;;;5041022;28;20056;-64
2022/04/25 11:25:19;;;;;;;17.50;14.07;;;;;;;;;;5030074;28;20036;-62
2022/04/25 11:28:08;;;;;;;16.45;13.10;;;;;;;;;;5032677;28;20103;-63
2022/04/25 11:30:34;;;;;;;14.98;12.13;;;;;;;;;;5040905;28;20111;-63
2022/04/25 11:33:08;;;;;;;17.08;12.10;;;;;;;;;;5022080;28;20173;-63
2022/04/25 11:35:34;;;;;;;14.52;11.77;;;;;;;;;;5034262;28;20036;-63
2022/04/25 11:38:00;;;;;;;13.50;11.13;;;;;;;;;;5021990;28;20460;-63
2022/04/25 11:40:26;;;;;;;12.65;10.48;;;;;;;;;;5031696;28;20462;-65
2022/04/25 11:42:52;;;;;;;13.63;10.95;;;;;;;;;;5046707;28;20061;-65
2022/04/25 11:45:19;;;;;;;13.85;11.25;;;;;;;;;;5026288;28;20118;-65
2022/04/25 11:47:44;;;;;;;13.35;10.70;;;;;;;;;;5051080;28;20036;-65
2022/04/25 11:50:13;;;;;;;12.07;10.52;;;;;;;;;;5023156;28;20038;-64
2022/04/25 11:52:46;;;;;;;13.57;10.68;;;;;;;;;;5032452;28;20029;-63
2022/04/25 11:55:12;;;;;;;12.50;10.15;;;;;;;;;;5042843;28;20032;-64
2022/04/25 11:57:39;;;;;;;12.43;10.40;;;;;;;;;;5053220;28;20041;-63
2022/04/25 12:00:10;;;;;;;13.13;10.85;;;;;;;;;;5055257;28;20032;-63
2022/04/25 12:02:37;;;;;;;13.10;10.93;;;;;;;;;;5044929;28;20395;-64
2022/04/25 12:05:04;;;;;;;14.35;10.55;;;;;;;;;;5034976;28;20136;-63
2022/04/25 12:07:30;;;;;;;14.05;10.98;;;;;;;;;;5044970;28;20039;-63
2022/04/25 12:15:35;;;;;;;13.60;10.60;;;;;;;;;;5033708;28;20036;-63
2022/04/25 12:18:26;;;;;;;14.93;11.20;;;;;;;;;;5035722;28;20029;-64
2022/04/25 12:21:08;;;;;;;15.45;11.10;;;;;;;;;;5034657;28;20076;-63
2022/04/25 12:23:43;;;;;;;16.55;11.43;;;;;;;;;;5029641;28;20071;-63
2022/04/25 12:26:27;;;;;;;14.43;11.55;;;;;;;;;;5024254;28;20462;-63
2022/04/25 12:29:01;;;;;;;14.43;10.77;;;;;;;;;;5034739;28;20033;-64
2022/04/25 12:31:28;;;;;;;14.50;10.88;;;;;;;;;;5031650;28;20037;-64
2022/04/25 12:33:54;;;;;;;15.25;10.20;;;;;;;;;;5025506;28;20033;-64
2022/04/25 12:36:23;;;;;;;13.52;10.60;;;;;;;;;;5031472;28;20036;-64
2022/04/25 12:38:59;;;;;;;13.82;10.25;;;;;;;;;;5041033;28;20033;-64
2022/04/25 12:41:30;;;;;;;13.80;9.98;;;;;;;;;;5030328;28;20120;-64
2022/04/25 12:43:56;;;;;;;;;;;;;;;;;;5039453;28;20022;-64
2022/04/25 12:46:39;;;;;;;13.45;9.73;;;;;;;;;;5053927;28;19908;-64
2022/04/25 12:49:20;;;;;;;15.73;10.50;;;;;;;;;;5052846;28;20033;-65
2022/04/25 12:51:55;;;;;;;13.65;10.35;;;;;;;;;;5053299;28;20139;-64
2022/04/25 12:54:25;;;;;;;13.85;10.25;;;;;;;;;;5051112;28;20060;-64
2022/04/25 12:56:55;;;;;;;14.88;10.98;;;;;;;;;;5026883;28;20498;-63
2022/04/25 12:59:29;;;;;;;13.60;10.57;;;;;;;;;;5035738;28;20132;-63
2022/04/25 13:02:11;;;;;;;15.20;11.05;;;;;;;;;;5014007;28;20038;-64
2022/04/25 13:05:00;;;;;;;17.85;11.50;;;;;;;;;;5029251;28;20052;-64
2022/04/25 13:07:31;;;;;;;14.50;11.30;;;;;;;;;;5024843;28;20041;-63
2022/04/25 13:10:00;;;;;;;16.55;12.02;;;;;;;;;;5030918;28;20033;-64
2022/04/25 13:12:42;;;;;;;20.52;14.00;;;;;;;;;;5016092;28;20033;-64
2022/04/25 13:15:12;;;;;;;17.02;12.82;;;;;;;;;;5027336;28;20079;-64
2022/04/25 13:17:38;;;;;;;19.00;13.50;;;;;;;;;;5013257;28;20042;-64
2022/04/25 13:20:09;;;;;;;17.55;13.00;;;;;;;;;;5026164;28;20042;-64
2022/04/25 13:22:35;;;;;;;19.30;13.88;;;;;;;;;;5024719;28;20061;-64
2022/04/25 13:25:02;;;;;;;20.83;13.88;;;;;;;;;;5013927;28;20029;-64
2022/04/25 13:27:27;;;;;;;22.10;15.60;;;;;;;;;;5048063;28;20119;-65
2022/04/25 13:29:52;;;;;;;24.58;17.00;;;;;;;;;;5038704;28;20171;-65
2022/04/25 13:32:18;;;;;;;23.08;16.42;;;;;;;;;;5042871;28;20444;-65
2022/04/25 13:34:44;;;;;;;26.83;17.00;;;;;;;;;;5012843;28;20096;-66
2022/04/25 13:37:13;;;;;;;25.38;16.83;;;;;;;;;;5042485;28;20406;-65
2022/04/25 13:39:38;;;;;;;25.55;17.60;;;;;;;;;;5031546;28;20038;-63
2022/04/25 13:42:04;;;;;;;21.95;15.40;;;;;;;;;;5031908;28;20037;-63
2022/04/25 13:44:30;;;;;;;22.15;14.90;;;;;;;;;;5029741;28;20463;-63
2022/04/25 13:46:56;;;;;;;25.38;17.55;;;;;;;;;;5045927;28;20041;-63
2022/04/25 13:49:22;;;;;;;25.85;15.15;;;;;;;;;;5020301;28;20041;-65
2022/04/25 13:51:47;;;;;;;21.38;15.00;;;;;;;;;;5028702;28;20033;-65
2022/04/25 13:54:13;;;;;;;23.83;15.25;;;;;;;;;;5031133;28;20110;-66
2022/04/25 13:56:41;;;;;;;18.25;13.27;;;;;;;;;;5041318;28;20036;-66
2022/04/25 13:59:08;;;;;;;21.73;14.10;;;;;;;;;;5051879;28;20037;-66
2022/04/25 14:01:33;;;;;;;19.83;12.48;;;;;;;;;;5034235;28;20036;-65
2022/04/25 14:03:59;;;;;;;16.73;11.43;;;;;;;;;;5051858;28;20029;-65
2022/04/25 14:06:24;;;;;;;17.70;11.60;;;;;;;;;;5041631;28;20026;-65
2022/04/25 14:08:51;;;;;;;17.90;11.80;;;;;;;;;;5034038;28;20037;-65
2022/04/25 14:11:16;;;;;;;16.40;11.85;;;;;;;;;;5037085;28;20034;-64
2022/04/25 14:13:42;;;;;;;15.15;10.95;;;;;;;;;;5041182;28;20112;-65
2022/04/25 14:16:08;;;;;;;14.68;11.10;;;;;;;;;;5052687;28;20025;-64
2022/04/25 14:18:34;;;;;;;16.23;11.43;;;;;;;;;;5033741;28;20188;-64
2022/04/25 14:20:59;;;;;;;15.38;11.43;;;;;;;;;;5023487;28;20441;-65
2022/04/25 14:23:25;;;;;;;17.23;11.90;;;;;;;;;;5050432;28;20056;-65
2022/04/25 14:25:54;;;;;;;18.15;12.07;;;;;;;;;;5018657;28;20041;-64
2022/04/25 14:28:20;;;;;;;17.05;11.48;;;;;;;;;;5021042;28;20566;-64
2022/04/25 14:30:45;;;;;;;16.48;11.38;;;;;;;;;;5026024;28;20140;-64
2022/04/25 14:33:10;;;;;;;17.60;12.40;;;;;;;;;;5030629;28;20091;-64
2022/04/25 14:35:36;;;;;;;16.75;12.20;;;;;;;;;;5025849;28;20030;-64
2022/04/25 14:38:02;;;;;;;16.40;11.82;;;;;;;;;;5029640;28;20037;-65
2022/04/25 14:40:27;;;;;;;17.60;13.05;;;;;;;;;;5019216;28;20049;-67
2022/04/25 14:42:52;;;;;;;19.77;12.85;;;;;;;;;;5028845;28;20034;-63
2022/04/25 14:45:18;;;;;;;17.90;12.98;;;;;;;;;;5034239;28;20029;-63
2022/04/25 14:47:47;;;;;;;16.75;12.57;;;;;;;;;;5040283;28;20035;-63
2022/04/25 14:55:42;;;;;;;17.38;13.02;;;;;;;;;;5048198;28;20047;-63
2022/04/25 14:58:08;;;;;;;17.27;13.57;;;;;;;;;;5037419;28;20037;-63
2022/04/25 15:00:34;;;;;;;18.23;14.07;;;;;;;;;;5029599;28;20037;-63
2022/04/25 15:02:59;;;;;;;19.63;14.55;;;;;;;;;;5032616;28;20386;-65
2022/04/25 15:05:25;;;;;;;17.73;14.63;;;;;;;;;;5030667;28;20029;-62
2022/04/25 15:07:50;;;;;;;20.33;14.70;;;;;;;;;;5029931;28;20028;-62
2022/04/25 15:10:16;;;;;;;18.95;14.63;;;;;;;;;;5048069;28;20146;-63